Time;durP1;ratioP1;P1;durP2;ratioP2;P2;SDS_P1;SDS_P2;PMS_P1;PMS_P2;Temp;Humidity;BMP_temperature;BMP_pressure;BME280_temperature;BME280_humidity;BME280_pressure;Samples;Min_cycle;Max_cycle;Signal;HPM_P1;HPM_P2
2022/01/15 00:01:12;;;;;;;9.50;5.20;;;;;;;-0.41;82.36;96129.34;1796475;79;21436;-66
2022/01/15 00:03:39;;;;;;;7.80;3.47;;;;;;;-0.34;82.24;96135.62;1796081;80;21021;-67
2022/01/15 00:06:07;;;;;;;5.80;3.23;;;;;;;-0.27;82.09;96139.75;1796485;79;21447;-67
2022/01/15 00:08:33;;;;;;;8.33;4.80;;;;;;;-0.18;82.07;96143.45;1796660;79;21049;-67
2022/01/15 00:10:59;;;;;;;8.17;4.43;;;;;;;-0.12;82.02;96140.66;1796293;80;21067;-66
2022/01/15 00:13:30;;;;;;;10.50;5.47;;;;;;;-0.11;81.85;96147.59;1796234;80;21001;-66
2022/01/15 00:19:18;;;;;;;10.80;5.23;;;;;;;-0.03;81.72;96166.86;1796147;80;21033;-66
2022/01/15 00:20:59;;;;;;;9.80;4.93;;;;;;;0.00;81.64;96162.21;1767593;80;21487;-66
2022/01/15 00:23:26;;;;;;;8.97;4.47;;;;;;;0.02;81.58;96172.62;1796353;79;21518;-67
2022/01/15 00:25:52;;;;;;;12.37;6.30;;;;;;;0.05;81.24;96177.50;1796301;80;21055;-67
2022/01/15 00:28:22;;;;;;;9.83;4.57;;;;;;;0.10;81.05;96175.02;1796173;80;20997;-67
2022/01/15 00:30:48;;;;;;;9.43;5.07;;;;;;;0.16;80.85;96176.53;1796190;79;21005;-67
2022/01/15 00:33:18;;;;;;;10.17;4.90;;;;;;;0.14;80.71;96180.36;1796087;80;21049;-67
2022/01/15 00:35:44;;;;;;;11.97;5.63;;;;;;;0.15;80.41;96185.13;1796485;80;21490;-66
2022/01/15 00:38:14;;;;;;;10.93;5.80;;;;;;;0.18;80.36;96187.84;1795984;80;20985;-66
2022/01/15 00:40:41;;;;;;;14.00;6.00;;;;;;;0.17;80.16;96186.06;1796412;80;21487;-66
2022/01/15 00:43:07;;;;;;;10.43;5.60;;;;;;;0.17;80.09;96188.23;1795930;80;21559;-66
2022/01/15 00:45:36;;;;;;;11.27;5.70;;;;;;;0.18;80.14;96191.31;1796385;80;21016;-66
2022/01/15 00:48:04;;;;;;;9.07;4.43;;;;;;;0.21;79.64;96199.61;1796349;80;21510;-66
2022/01/15 00:50:31;;;;;;;8.90;4.77;;;;;;;0.22;79.28;96203.95;1796133;80;21013;-66
2022/01/15 00:52:59;;;;;;;9.73;5.03;;;;;;;0.23;79.28;96208.72;1795847;80;21021;-66
2022/01/15 00:55:26;;;;;;;6.97;3.60;;;;;;;0.21;79.08;96224.27;1796917;79;21495;-66
2022/01/15 00:57:55;;;;;;;8.80;4.93;;;;;;;0.19;78.71;96224.20;1792160;79;21013;-67
2022/01/15 01:00:26;;;;;;;10.03;5.77;;;;;;;0.17;78.46;96237.54;1787407;80;21005;-66
2022/01/15 01:02:54;;;;;;;10.57;5.37;;;;;;;0.15;78.00;96241.83;1787963;80;20962;-66
2022/01/15 01:05:21;;;;;;;13.83;6.83;;;;;;;0.13;77.41;96243.48;1787680;80;21070;-67
2022/01/15 01:07:51;;;;;;;10.67;5.93;;;;;;;0.13;77.43;96244.78;1787771;80;21008;-67
2022/01/15 01:23:28;;;;;;;9.93;5.40;;;;;;;-0.01;76.81;96261.19;1787904;80;20981;-67
2022/01/15 01:26:07;;;;;;;16.83;7.70;;;;;;;-0.07;76.66;96245.86;1787661;80;21491;-66
2022/01/15 01:28:36;;;;;;;12.30;5.47;;;;;;;-0.06;76.82;96251.08;1785893;80;20997;-66
2022/01/15 01:31:08;;;;;;;14.80;5.70;;;;;;;-0.09;76.87;96246.22;1784780;80;21128;-66
2022/01/15 01:36:10;;;;;;;12.37;5.97;;;;;;;-0.17;76.25;96251.58;1787363;80;21025;-66
2022/01/15 01:38:32;;;;;;;15.15;6.22;;;;;;;-0.19;76.56;96255.41;1785246;80;21032;-66
2022/01/15 01:40:58;;;;;;;11.40;5.43;;;;;;;-0.23;76.66;96260.00;1786920;80;20966;-66
2022/01/15 01:43:41;;;;;;;8.53;4.37;;;;;;;-0.26;76.64;96253.01;1787366;80;21519;-66
2022/01/15 01:46:46;;;;;;;8.43;4.30;;;;;;;-0.31;76.46;96257.16;1784226;80;20998;-67
2022/01/15 01:48:27;;;;;;;10.20;4.40;;;;;;;-0.34;76.14;96257.06;1768946;80;21113;-66
2022/01/15 01:50:53;;;;;;;10.47;4.77;;;;;;;-0.31;76.23;96261.47;1787674;80;20998;-67
2022/01/15 01:53:20;;;;;;;10.00;4.03;;;;;;;-0.33;76.56;96260.14;1787782;80;21567;-67
2022/01/15 01:55:48;;;;;;;11.63;4.93;;;;;;;-0.35;76.46;96261.80;1787748;80;21017;-67
2022/01/15 01:58:15;;;;;;;10.90;4.80;;;;;;;-0.36;76.66;96267.79;1791220;80;21025;-67
2022/01/15 02:00:44;;;;;;;10.10;4.40;;;;;;;-0.34;76.67;96257.48;1796400;80;20977;-67
2022/01/15 02:03:11;;;;;;;9.27;4.57;;;;;;;-0.30;76.73;96264.55;1795901;80;21024;-67
2022/01/15 02:05:40;;;;;;;6.20;3.20;;;;;;;-0.27;76.82;96265.94;1796520;79;20973;-67
2022/01/15 02:08:08;;;;;;;9.20;4.00;;;;;;;-0.27;76.75;96258.16;1796291;79;21076;-67
2022/01/15 02:10:36;;;;;;;7.47;4.00;;;;;;;-0.18;76.57;96258.45;1796168;80;21049;-67
2022/01/15 02:13:08;;;;;;;8.27;3.70;;;;;;;-0.16;76.55;96254.20;1796552;80;21483;-66
2022/01/15 02:15:37;;;;;;;11.00;4.20;;;;;;;-0.15;76.79;96257.28;1796267;79;21526;-66
2022/01/15 02:18:04;;;;;;;5.00;2.43;;;;;;;-0.12;76.73;96254.78;1795997;80;21025;-67
2022/01/15 02:25:52;;;;;;;11.67;4.83;;;;;;;-0.11;76.68;96264.31;1796366;80;21455;-67
2022/01/15 02:28:24;;;;;;;8.75;4.12;;;;;;;-0.14;76.71;96264.64;1796400;80;21044;-67
2022/01/15 02:30:58;;;;;;;8.90;3.77;;;;;;;-0.16;76.77;96267.16;1791346;80;21020;-67
2022/01/15 02:33:26;;;;;;;9.30;4.20;;;;;;;-0.24;77.01;96264.73;1796380;80;21531;-67
2022/01/15 02:35:54;;;;;;;13.07;4.60;;;;;;;-0.28;77.37;96266.36;1796318;80;21020;-67
2022/01/15 02:38:23;;;;;;;10.40;4.30;;;;;;;-0.28;77.47;96272.84;1795832;79;21072;-66
2022/01/15 02:40:50;;;;;;;11.60;5.70;;;;;;;-0.30;77.49;96272.33;1796077;80;21833;-67
2022/01/15 02:43:21;;;;;;;12.57;5.57;;;;;;;-0.33;77.58;96274.79;1795881;79;21064;-67
2022/01/15 02:45:54;;;;;;;11.40;5.33;;;;;;;-0.32;77.58;96281.34;1796394;80;21041;-66
2022/01/15 02:48:19;;;;;;;13.17;5.13;;;;;;;-0.37;77.69;96285.48;1795805;80;21480;-67
2022/01/15 02:50:47;;;;;;;11.57;4.80;;;;;;;-0.38;77.53;96288.89;1796281;79;21009;-67
2022/01/15 02:53:16;;;;;;;7.63;3.47;;;;;;;-0.41;77.66;96282.73;1796266;80;20978;-67
2022/01/15 02:55:50;;;;;;;10.73;4.30;;;;;;;-0.53;77.59;96289.27;1796486;79;20977;-67
2022/01/15 02:58:19;;;;;;;13.37;5.33;;;;;;;-0.61;77.87;96291.10;1792426;79;21013;-67
2022/01/15 03:00:47;;;;;;;12.00;4.50;;;;;;;-0.66;77.86;96297.41;1787634;80;20997;-67
2022/01/15 03:03:14;;;;;;;9.67;5.00;;;;;;;-0.68;78.05;96300.36;1787603;80;21009;-67
2022/01/15 03:05:44;;;;;;;10.20;5.47;;;;;;;-0.75;78.24;96305.75;1787560;80;21492;-67
2022/01/15 03:08:10;;;;;;;11.20;5.07;;;;;;;-0.76;78.30;96296.61;1787699;80;20985;-67
2022/01/15 03:10:37;;;;;;;7.50;4.17;;;;;;;-0.79;78.25;96301.69;1787859;80;21009;-67
2022/01/15 03:13:10;;;;;;;11.20;5.33;;;;;;;-0.89;78.34;96290.98;1787495;80;21005;-67
2022/01/15 03:15:34;;;;;;;10.57;5.30;;;;;;;-0.97;78.59;96303.20;1786204;80;21109;-67
2022/01/15 03:18:01;;;;;;;9.33;4.37;;;;;;;-1.04;78.36;96305.09;1787321;80;21052;-67
2022/01/15 03:20:27;;;;;;;12.43;5.10;;;;;;;-1.13;78.63;96296.58;1787244;80;21014;-67
2022/01/15 03:22:56;;;;;;;12.30;4.77;;;;;;;-1.24;79.29;96291.39;1787325;80;20974;-67
2022/01/15 03:25:22;;;;;;;10.97;4.57;;;;;;;-1.26;79.18;96298.20;1787282;80;20978;-66
2022/01/15 03:27:49;;;;;;;10.80;4.50;;;;;;;-1.33;79.71;96296.69;1787305;80;21045;-67
2022/01/15 03:30:16;;;;;;;7.03;3.53;;;;;;;-1.34;80.15;96295.33;1787305;80;21484;-67
2022/01/15 03:32:45;;;;;;;15.50;5.57;;;;;;;-1.34;80.57;96303.09;1787720;80;20989;-66
2022/01/15 03:35:21;;;;;;;10.80;4.67;;;;;;;-1.33;80.54;96303.58;1787305;80;21041;-66
2022/01/15 03:37:47;;;;;;;7.80;3.30;;;;;;;-1.33;80.20;96308.34;1787752;80;20985;-66
2022/01/15 03:40:15;;;;;;;7.43;3.10;;;;;;;-1.35;80.29;96307.81;1787480;80;20990;-66
2022/01/15 03:42:46;;;;;;;7.63;3.63;;;;;;;-1.39;80.16;96317.56;1787321;80;20986;-66
2022/01/15 03:45:15;;;;;;;9.10;4.60;;;;;;;-1.47;79.96;96314.69;1787002;80;20989;-67
2022/01/15 03:47:44;;;;;;;9.53;4.00;;;;;;;-1.57;79.74;96317.73;1787523;80;21048;-66
2022/01/15 03:50:12;;;;;;;8.47;3.63;;;;;;;-1.67;79.62;96316.48;1787768;80;21028;-66
2022/01/15 03:52:39;;;;;;;7.90;4.20;;;;;;;-1.80;79.73;96312.94;1787598;80;20982;-66
2022/01/15 03:55:09;;;;;;;7.83;3.53;;;;;;;-1.90;80.04;96314.69;1787492;80;21018;-67
2022/01/15 03:57:36;;;;;;;8.10;3.67;;;;;;;-1.97;80.36;96318.71;1787585;80;20970;-67
2022/01/15 04:00:17;;;;;;;9.23;3.63;;;;;;;-2.03;80.22;96309.01;1794551;80;21009;-66
2022/01/15 04:02:47;;;;;;;7.43;2.90;;;;;;;-2.12;79.94;96317.66;1796049;80;21069;-67
2022/01/15 04:05:14;;;;;;;8.47;4.13;;;;;;;-2.21;80.15;96313.42;1796732;79;21688;-66
2022/01/15 04:07:41;;;;;;;8.83;3.40;;;;;;;-2.34;80.01;96317.20;1796146;80;21020;-67
2022/01/15 04:10:10;;;;;;;6.90;3.40;;;;;;;-2.43;80.09;96316.80;1795915;80;21044;-67
2022/01/15 04:12:38;;;;;;;15.53;3.90;;;;;;;-2.55;80.04;96310.69;1796255;80;20985;-67
2022/01/15 04:15:13;;;;;;;7.47;3.07;;;;;;;-2.65;80.82;96319.73;1796145;79;21012;-66
2022/01/15 04:17:43;;;;;;;9.27;3.20;;;;;;;-2.64;81.05;96325.80;1796339;80;21010;-66
2022/01/15 04:20:12;;;;;;;8.80;4.23;;;;;;;-2.61;81.13;96321.64;1796137;80;20977;-67
2022/01/15 04:22:39;;;;;;;7.70;3.00;;;;;;;-2.54;81.00;96323.22;1796121;79;21004;-67
2022/01/15 04:25:07;;;;;;;8.33;3.73;;;;;;;-2.58;80.57;96329.94;1795818;79;20993;-67
2022/01/15 04:27:36;;;;;;;11.87;4.37;;;;;;;-2.61;80.54;96328.52;1796211;80;21534;-67
2022/01/15 04:30:08;;;;;;;12.40;5.63;;;;;;;-2.57;80.57;96327.84;1795925;80;20997;-66
2022/01/15 04:32:35;;;;;;;8.03;3.23;;;;;;;-2.61;80.29;96330.69;1796212;80;21000;-66
2022/01/15 04:35:01;;;;;;;10.87;6.77;;;;;;;-2.62;79.95;96337.09;1796349;80;21029;-66
2022/01/15 04:37:37;;;;;;;15.20;5.50;;;;;;;-2.67;79.65;96339.47;1795990;80;21044;-66
2022/01/15 04:40:00;;;;;;;15.87;5.23;;;;;;;-2.75;79.55;96344.69;1795708;80;21041;-67
2022/01/15 04:42:26;;;;;;;24.70;8.83;;;;;;;-2.86;79.55;96355.84;1796463;79;21028;-66
2022/01/15 04:44:53;;;;;;;29.00;9.60;;;;;;;-2.84;79.92;96357.20;1796300;80;21092;-67
2022/01/15 04:47:19;;;;;;;45.93;11.50;;;;;;;-2.78;79.42;96369.09;1796350;80;21479;-66
2022/01/15 04:49:46;;;;;;;45.13;14.40;;;;;;;-2.66;79.17;96354.14;1796019;79;21071;-66
2022/01/15 04:52:12;;;;;;;62.50;20.30;;;;;;;-2.69;78.96;96360.89;1796656;80;21001;-66
2022/01/15 04:54:39;;;;;;;10.97;3.70;;;;;;;-2.86;79.00;96366.58;1796204;80;20993;-66
2022/01/15 04:57:05;;;;;;;6.53;2.07;;;;;;;-2.96;79.13;96361.81;1796278;79;21455;-67
2022/01/15 04:59:32;;;;;;;7.63;1.90;;;;;;;-3.07;79.20;96364.80;1796345;79;21123;-67
2022/01/15 05:02:00;;;;;;;5.40;1.73;;;;;;;-3.14;79.58;96364.03;1796141;80;21024;-67
2022/01/15 05:04:26;;;;;;;4.63;2.23;;;;;;;-3.20;79.95;96367.63;1795999;79;21033;-67
2022/01/15 05:06:55;;;;;;;6.77;3.63;;;;;;;-3.33;79.70;96372.59;1796356;79;20981;-67
2022/01/15 05:09:22;;;;;;;13.90;8.37;;;;;;;-3.39;80.16;96381.36;1796379;80;21041;-67
2022/01/15 05:12:02;;;;;;;11.20;2.23;;;;;;;-3.46;80.20;96382.28;1796316;80;21495;-67
2022/01/15 05:14:23;;;;;;;7.50;2.40;;;;;;;-3.51;80.42;96380.36;1796225;80;21108;-67
2022/01/15 05:16:54;;;;;;;4.80;2.47;;;;;;;-3.56;80.51;96380.55;1796027;79;21037;-67
2022/01/15 05:19:23;;;;;;;10.93;3.10;;;;;;;-3.60;80.63;96387.67;1796258;79;21025;-67
2022/01/15 05:21:50;;;;;;;7.53;4.10;;;;;;;-3.60;80.80;96393.25;1796444;80;21503;-67
2022/01/15 05:24:16;;;;;;;37.40;17.83;;;;;;;-3.52;80.99;96390.20;1796006;80;21024;-67
2022/01/15 05:26:43;;;;;;;9.50;4.70;;;;;;;-3.49;80.58;96391.64;1796364;80;21439;-67
2022/01/15 05:29:10;;;;;;;13.43;7.33;;;;;;;-3.38;80.56;96400.30;1795859;79;21020;-67
2022/01/15 05:31:39;;;;;;;18.97;9.83;;;;;;;-3.28;80.11;96399.92;1796244;80;20989;-67
2022/01/15 05:34:06;;;;;;;6.80;2.87;;;;;;;-3.25;79.84;96406.54;1796380;79;20974;-67
2022/01/15 05:36:32;;;;;;;2.40;1.50;;;;;;;-3.29;79.67;96403.33;1796448;79;21016;-67
2022/01/15 05:38:58;;;;;;;6.27;3.90;;;;;;;-3.32;79.61;96403.19;1796306;79;20997;-67
2022/01/15 05:41:25;;;;;;;5.50;2.10;;;;;;;-3.32;79.37;96410.92;1770046;80;21527;-67
2022/01/15 05:43:51;;;;;;;7.47;1.63;;;;;;;-3.45;79.17;96414.62;1796547;79;21056;-67
2022/01/15 05:46:18;;;;;;;3.83;1.50;;;;;;;-3.56;79.26;96410.20;1795878;79;21017;-67
2022/01/15 05:48:45;;;;;;;4.87;1.40;;;;;;;-3.65;79.31;96419.19;1796489;80;21575;-67
2022/01/15 05:51:14;;;;;;;5.87;2.47;;;;;;;-3.70;79.94;96419.87;1796069;80;21024;-67
2022/01/15 05:53:43;;;;;;;5.40;1.70;;;;;;;-3.75;79.86;96425.61;1796442;79;21314;-67
2022/01/15 05:56:09;;;;;;;5.47;1.50;;;;;;;-3.82;79.95;96424.83;1796131;80;21008;-67
2022/01/15 05:58:36;;;;;;;9.43;2.90;;;;;;;-3.87;80.02;96423.72;1795968;80;20977;-67
2022/01/15 06:01:02;;;;;;;5.67;1.80;;;;;;;-3.90;80.37;96428.73;1787383;80;21057;-67
2022/01/15 06:03:29;;;;;;;8.03;2.33;;;;;;;-3.86;80.54;96429.34;1787811;80;20954;-67
2022/01/15 06:05:57;;;;;;;4.90;1.63;;;;;;;-3.67;80.49;96435.89;1787369;80;21049;-67
2022/01/15 06:08:24;;;;;;;3.27;1.43;;;;;;;-3.54;79.93;96436.09;1787691;80;20973;-67
2022/01/15 06:10:50;;;;;;;23.00;10.83;;;;;;;-3.56;79.68;96445.03;1787369;80;21080;-67
2022/01/15 06:13:16;;;;;;;14.47;5.30;;;;;;;-3.58;79.66;96443.19;1787634;80;20974;-67
2022/01/15 06:15:45;;;;;;;6.50;1.33;;;;;;;-3.64;79.55;96438.62;1787385;80;21032;-67
2022/01/15 06:18:13;;;;;;;11.67;3.83;;;;;;;-3.69;79.05;96443.95;1787640;80;21009;-67
2022/01/15 06:20:40;;;;;;;11.70;5.00;;;;;;;-3.85;78.86;96439.74;1787592;80;20998;-67
2022/01/15 06:23:06;;;;;;;34.30;14.93;;;;;;;-3.94;79.39;96450.45;1787968;80;20989;-67
2022/01/15 06:25:33;;;;;;;24.40;10.93;;;;;;;-4.03;79.59;96451.30;1787510;80;21017;-67
2022/01/15 06:27:59;;;;;;;6.00;2.17;;;;;;;-4.04;80.45;96450.80;1782556;80;21053;-66
2022/01/15 06:30:29;;;;;;;14.20;5.47;;;;;;;-3.76;80.58;96450.49;1756849;80;21001;-66
2022/01/15 06:32:56;;;;;;;11.13;3.50;;;;;;;-3.56;80.78;96458.34;1787453;80;21504;-67
2022/01/15 06:35:25;;;;;;;14.50;5.83;;;;;;;-3.44;80.13;96460.64;1787852;80;20989;-67
2022/01/15 06:37:52;;;;;;;9.17;5.47;;;;;;;-3.55;79.45;96457.55;1787756;80;20950;-66
2022/01/15 06:40:18;;;;;;;12.03;2.20;;;;;;;-3.54;79.59;96458.02;1787460;80;21020;-67
2022/01/15 06:42:45;;;;;;;20.50;9.07;;;;;;;-3.58;79.39;96454.42;1787679;80;20982;-66
2022/01/15 06:45:12;;;;;;;15.53;6.73;;;;;;;-3.76;78.93;96462.09;1787604;80;21420;-66
2022/01/15 06:47:39;;;;;;;25.97;11.97;;;;;;;-3.90;79.39;96456.67;1787731;80;21551;-67
2022/01/15 06:50:08;;;;;;;39.77;20.47;;;;;;;-3.95;79.82;96468.03;1787480;80;21009;-66
2022/01/15 06:52:39;;;;;;;32.00;13.37;;;;;;;-3.92;79.96;96471.17;1787749;80;20993;-66
2022/01/15 06:55:08;;;;;;;8.07;3.37;;;;;;;-3.86;80.02;96465.02;1787730;80;21494;-67
2022/01/15 06:57:37;;;;;;;16.23;4.13;;;;;;;-3.66;80.54;96473.77;1787681;80;21017;-67
2022/01/15 07:00:10;;;;;;;10.70;4.63;;;;;;;-3.37;79.91;96475.62;1787721;80;20994;-67
2022/01/15 07:02:38;;;;;;;28.03;12.53;;;;;;;-2.99;78.86;96471.41;1787828;80;21033;-67
2022/01/15 07:05:07;;;;;;;41.03;14.47;;;;;;;-2.90;77.83;96470.16;1787459;80;21013;-67
2022/01/15 07:07:40;;;;;;;10.83;4.83;;;;;;;-2.70;77.38;96467.17;1787838;80;21053;-67
2022/01/15 07:10:06;;;;;;;30.27;12.13;;;;;;;-2.50;77.74;96471.09;1787591;80;20978;-67
2022/01/15 07:12:35;;;;;;;28.37;11.27;;;;;;;-2.37;77.55;96478.58;1787709;80;21049;-67
2022/01/15 07:15:04;;;;;;;39.47;16.83;;;;;;;-2.29;76.79;96474.66;1787470;80;21029;-66
2022/01/15 07:17:32;;;;;;;32.67;11.87;;;;;;;-2.23;75.55;96480.50;1787609;80;20991;-67
2022/01/15 07:19:59;;;;;;;17.77;9.47;;;;;;;-2.13;76.40;96480.09;1785939;80;21530;-67
2022/01/15 07:22:25;;;;;;;13.13;7.07;;;;;;;-2.10;74.81;96479.34;1787342;80;20966;-66
2022/01/15 07:24:52;;;;;;;84.70;43.63;;;;;;;-1.98;73.64;96480.77;1787807;80;20977;-67
2022/01/15 07:27:18;;;;;;;51.67;23.50;;;;;;;-1.82;74.63;96484.89;1787361;80;21013;-67
2022/01/15 07:29:45;;;;;;;60.67;26.13;;;;;;;-1.72;74.77;96488.76;1787405;80;21017;-66
2022/01/15 07:32:11;;;;;;;26.07;11.53;;;;;;;-1.69;74.42;96491.89;1787650;80;21044;-66
2022/01/15 07:34:38;;;;;;;14.87;7.20;;;;;;;-1.59;74.92;96487.20;1787724;80;21028;-67
2022/01/15 07:37:05;;;;;;;42.80;28.73;;;;;;;-1.47;71.43;96490.69;1787289;80;21018;-66
2022/01/15 07:39:32;;;;;;;25.37;12.50;;;;;;;-1.35;71.04;96496.80;1787412;80;21005;-67
2022/01/15 07:41:59;;;;;;;27.10;12.53;;;;;;;-1.25;72.06;96489.00;1787572;80;20958;-66
2022/01/15 07:44:26;;;;;;;18.17;8.30;;;;;;;-1.20;72.71;96490.95;1787597;80;20985;-66
2022/01/15 07:46:55;;;;;;;19.27;8.70;;;;;;;-1.11;71.97;96487.84;1787655;80;21456;-66
2022/01/15 07:49:22;;;;;;;10.60;4.40;;;;;;;-1.00;71.80;96492.17;1787285;80;21452;-66
2022/01/15 07:51:48;;;;;;;11.50;4.63;;;;;;;-0.94;69.80;96491.99;1787633;80;21025;-66
2022/01/15 07:54:15;;;;;;;10.83;5.70;;;;;;;-0.81;71.52;96487.30;1787520;80;21068;-67
2022/01/15 07:56:41;;;;;;;9.00;4.07;;;;;;;-0.67;71.46;96493.92;1787695;80;21001;-67
2022/01/15 07:59:11;;;;;;;5.53;1.80;;;;;;;-0.60;71.01;96493.75;1787722;80;21001;-67
2022/01/15 08:01:37;;;;;;;5.37;3.03;;;;;;;-0.55;67.08;96487.04;1796214;80;20997;-67
2022/01/15 08:04:04;;;;;;;4.90;2.53;;;;;;;-0.43;68.90;96491.37;1795939;80;21029;-67
2022/01/15 08:06:32;;;;;;;5.73;1.70;;;;;;;-0.32;65.41;96495.69;1795886;80;21045;-67
2022/01/15 08:08:58;;;;;;;3.70;2.17;;;;;;;-0.30;64.25;96494.04;1796478;79;21005;-67
2022/01/15 08:11:24;;;;;;;7.90;2.43;;;;;;;-0.20;65.83;96489.66;1796271;80;21001;-67
2022/01/15 08:13:53;;;;;;;8.10;2.80;;;;;;;-0.09;65.05;96487.03;1796143;80;21009;-67
2022/01/15 08:16:19;;;;;;;7.53;4.17;;;;;;;-0.02;65.77;96498.12;1796432;79;20977;-67
2022/01/15 08:18:48;;;;;;;4.37;2.17;;;;;;;0.04;65.18;96502.64;1796587;79;21062;-67
2022/01/15 08:21:14;;;;;;;7.57;2.33;;;;;;;0.11;64.32;96507.64;1796224;80;21017;-67
2022/01/15 08:23:41;;;;;;;3.73;1.50;;;;;;;0.19;64.98;96509.67;1796108;79;21021;-66
2022/01/15 08:26:08;;;;;;;3.17;2.07;;;;;;;0.23;63.75;96510.69;1796352;80;21013;-66
2022/01/15 08:28:37;;;;;;;9.97;2.80;;;;;;;0.31;62.61;96514.86;1795836;79;21056;-66
2022/01/15 08:31:06;;;;;;;3.53;1.20;;;;;;;0.45;64.36;96521.39;1796433;79;21009;-67
2022/01/15 08:33:35;;;;;;;3.53;1.80;;;;;;;0.49;62.75;96514.61;1796338;80;21044;-67
2022/01/15 08:36:02;;;;;;;6.97;1.93;;;;;;;0.49;60.72;96510.30;1796246;80;21013;-67
2022/01/15 08:38:29;;;;;;;4.23;1.93;;;;;;;0.56;62.42;96514.88;1796066;80;21014;-67
2022/01/15 08:40:55;;;;;;;4.93;2.30;;;;;;;0.72;62.33;96518.87;1796393;80;20993;-67
2022/01/15 08:43:22;;;;;;;4.03;1.50;;;;;;;0.74;62.38;96515.92;1795960;80;20977;-66
2022/01/15 08:45:49;;;;;;;4.50;1.73;;;;;;;0.81;60.57;96511.41;1796171;80;21029;-66
2022/01/15 08:48:19;;;;;;;5.13;1.53;;;;;;;0.81;59.85;96515.30;1795814;79;21016;-67
2022/01/15 08:50:47;;;;;;;7.03;3.00;;;;;;;0.90;59.85;96516.44;1796466;79;21017;-66
2022/01/15 08:53:18;;;;;;;6.87;2.40;;;;;;;0.91;58.90;96516.50;1796527;80;21057;-66
2022/01/15 08:55:47;;;;;;;7.07;2.90;;;;;;;0.95;59.86;96519.65;1796302;79;21013;-66
2022/01/15 08:58:14;;;;;;;6.37;2.70;;;;;;;1.00;59.01;96530.20;1796328;80;20981;-66
2022/01/15 09:00:41;;;;;;;8.53;3.70;;;;;;;1.17;59.83;96529.47;1796121;80;21056;-66
2022/01/15 09:03:08;;;;;;;6.90;2.30;;;;;;;1.26;59.90;96519.34;1795998;80;21009;-66
2022/01/15 09:05:37;;;;;;;5.50;2.50;;;;;;;1.37;59.92;96525.78;1796421;80;20946;-66
2022/01/15 09:08:06;;;;;;;9.57;3.60;;;;;;;1.50;60.41;96521.42;1796049;80;20989;-66
2022/01/15 09:10:33;;;;;;;9.20;2.30;;;;;;;1.61;59.25;96519.15;1796069;79;21036;-66
2022/01/15 09:13:00;;;;;;;7.50;2.63;;;;;;;1.73;59.28;96513.45;1796056;79;21040;-66
2022/01/15 09:15:29;;;;;;;5.17;2.17;;;;;;;1.84;58.47;96508.56;1796148;80;21049;-66
2022/01/15 09:18:00;;;;;;;4.30;2.43;;;;;;;1.93;57.73;96508.84;1796573;79;21069;-66
2022/01/15 09:20:27;;;;;;;6.73;2.47;;;;;;;2.07;57.70;96510.56;1796631;80;21502;-66
2022/01/15 09:22:54;;;;;;;7.77;2.23;;;;;;;2.16;57.66;96506.89;1796296;80;21013;-66
2022/01/15 09:25:21;;;;;;;7.80;2.40;;;;;;;2.31;58.74;96511.66;1796106;80;21044;-66
2022/01/15 09:30:33;;;;;;;4.83;2.70;;;;;;;2.44;57.15;96511.15;1796016;80;21617;-66
2022/01/15 09:33:00;;;;;;;6.47;2.17;;;;;;;2.48;58.53;96509.53;1796365;80;21037;-66
2022/01/15 09:35:30;;;;;;;5.70;1.93;;;;;;;2.54;56.08;96517.50;1796228;79;20986;-66
2022/01/15 09:37:58;;;;;;;6.20;2.53;;;;;;;2.59;55.47;96512.86;1796426;80;21017;-67
2022/01/15 09:40:27;;;;;;;5.83;2.43;;;;;;;2.61;53.52;96511.62;1796116;80;21028;-66
2022/01/15 09:42:55;;;;;;;4.30;2.00;;;;;;;2.66;53.24;96512.63;1796321;79;21012;-66
2022/01/15 09:45:24;;;;;;;7.73;2.90;;;;;;;2.77;54.67;96504.69;1796004;80;21052;-67
2022/01/15 09:47:58;;;;;;;9.53;3.00;;;;;;;2.79;52.15;96512.09;1796406;80;21494;-66
2022/01/15 09:50:29;;;;;;;9.40;4.00;;;;;;;2.81;52.46;96509.54;1796376;80;21088;-66
2022/01/15 09:52:59;;;;;;;5.57;2.97;;;;;;;2.88;52.32;96507.98;1796341;79;20993;-67
2022/01/15 09:55:26;;;;;;;6.27;2.57;;;;;;;2.94;52.88;96508.13;1796287;80;20973;-66
2022/01/15 09:57:54;;;;;;;4.00;1.80;;;;;;;3.09;53.07;96514.16;1796033;80;21013;-66
2022/01/15 10:00:23;;;;;;;6.00;2.33;;;;;;;3.23;51.53;96522.78;1795931;79;21064;-66
2022/01/15 10:02:53;;;;;;;7.07;2.50;;;;;;;3.45;52.12;96508.94;1796273;79;21001;-66
2022/01/15 10:05:22;;;;;;;6.20;2.40;;;;;;;3.68;49.70;96508.20;1796293;79;21008;-66
2022/01/15 10:08:01;;;;;;;6.93;1.90;;;;;;;4.09;49.16;96501.68;1796367;80;20969;-66
2022/01/15 10:10:31;;;;;;;8.60;2.93;;;;;;;4.38;46.56;96498.77;1795987;80;21550;-67
2022/01/15 10:13:18;;;;;;;5.90;3.50;;;;;;;4.74;47.95;96496.88;1796092;80;21032;-67
2022/01/15 10:15:49;;;;;;;6.10;3.10;;;;;;;5.15;46.07;96480.14;1796250;80;21056;-68
2022/01/15 10:18:29;;;;;;;4.80;2.97;;;;;;;5.55;44.34;96472.93;1785735;80;20949;-67
2022/01/15 10:21:18;;;;;;;7.37;3.20;;;;;;;6.05;43.97;96467.12;1795009;80;21052;-68
2022/01/15 10:24:00;;;;;;;7.40;3.13;;;;;;;6.39;42.12;96460.09;1795648;79;21017;-65
2022/01/15 10:26:35;;;;;;;4.53;2.73;;;;;;;6.61;41.54;96450.73;1796386;80;21021;-65
2022/01/15 10:29:07;;;;;;;4.37;2.23;;;;;;;7.00;40.74;96453.28;1796464;80;21538;-65
2022/01/15 10:31:40;;;;;;;6.00;2.58;;;;;;;7.32;38.82;96446.55;1796152;80;21008;-65
2022/01/15 10:34:29;;;;;;;6.97;2.72;;;;;;;7.54;38.64;96440.16;1796441;79;20974;-65
2022/01/15 10:37:14;;;;;;;10.90;4.67;;;;;;;7.78;37.65;96437.66;1796405;80;21016;-65
2022/01/15 10:40:10;;;;;;;11.18;5.85;;;;;;;8.05;37.76;96434.75;1795866;80;21515;-64
2022/01/15 10:42:38;;;;;;;8.80;5.45;;;;;;;8.36;37.16;96431.80;1769550;80;21464;-64
2022/01/15 10:45:16;;;;;;;7.78;4.65;;;;;;;8.59;37.28;96427.08;1796333;80;20966;-64
2022/01/15 10:47:49;;;;;;;11.63;6.60;;;;;;;8.79;36.66;96421.42;1795892;80;21033;-64
2022/01/15 10:50:28;;;;;;;12.60;8.45;;;;;;;8.85;34.80;96416.63;1796230;80;21025;-64
2022/01/15 10:52:57;;;;;;;8.05;4.37;;;;;;;9.10;36.55;96399.97;1796406;79;21447;-64
2022/01/15 10:55:30;;;;;;;9.63;6.45;;;;;;;9.20;32.76;96402.16;1796208;80;21491;-64
2022/01/15 10:58:03;;;;;;;8.45;4.08;;;;;;;9.20;31.46;96402.16;1796390;80;21025;-64
2022/01/15 11:00:42;;;;;;;6.53;3.10;;;;;;;9.14;33.04;96412.68;1790990;80;21037;-65
2022/01/15 11:03:17;;;;;;;6.58;3.62;;;;;;;9.26;29.94;96403.47;1777702;81;21058;-65
2022/01/15 11:05:48;;;;;;;4.10;2.72;;;;;;;9.18;31.64;96398.65;1777695;81;21089;-65
2022/01/15 11:08:20;;;;;;;6.47;4.20;;;;;;;9.27;31.73;96403.92;1777712;80;21005;-65
2022/01/15 11:11:04;;;;;;;5.90;2.60;;;;;;;9.46;30.43;96395.55;1777864;80;21010;-65
2022/01/15 11:13:39;;;;;;;7.35;4.37;;;;;;;9.14;30.64;96393.38;1777497;81;21574;-65
2022/01/15 11:16:12;;;;;;;16.10;10.08;;;;;;;8.26;31.31;96408.11;1777577;81;21078;-65
2022/01/15 11:18:43;;;;;;;13.62;6.53;;;;;;;8.33;33.63;96398.06;1777841;81;21002;-64
2022/01/15 11:21:14;;;;;;;7.72;4.03;;;;;;;8.75;32.07;96388.10;1777828;80;21037;-64
2022/01/15 11:23:43;;;;;;;11.38;7.45;;;;;;;8.38;31.22;96399.82;1777542;81;20990;-64
2022/01/15 11:26:24;;;;;;;11.25;5.78;;;;;;;8.10;31.08;96397.98;1777699;81;21045;-64
2022/01/15 11:28:55;;;;;;;12.28;9.05;;;;;;;8.42;32.32;96400.31;1777794;80;21527;-65
2022/01/15 11:31:29;;;;;;;11.40;9.08;;;;;;;8.62;31.81;96392.91;1777286;81;21575;-65
2022/01/15 11:33:59;;;;;;;10.58;5.78;;;;;;;8.75;30.93;96395.13;1777899;81;21054;-65
2022/01/15 11:36:39;;;;;;;18.55;6.33;;;;;;;8.93;31.14;96396.45;1777885;81;21050;-64
2022/01/15 11:39:16;;;;;;;7.75;4.53;;;;;;;9.30;32.26;96386.80;1777929;81;21002;-64
2022/01/15 11:41:52;;;;;;;12.85;7.05;;;;;;;9.44;31.62;96388.53;1777571;80;21014;-64
2022/01/15 11:44:33;;;;;;;8.63;4.10;;;;;;;10.04;31.26;96387.06;1777681;80;21078;-64
2022/01/15 11:47:25;;;;;;;10.10;5.92;;;;;;;10.00;29.45;96388.81;1777600;81;20951;-64
2022/01/15 11:49:54;;;;;;;9.08;4.75;;;;;;;9.51;29.67;96382.38;1778309;81;21121;-64
2022/01/15 11:52:29;;;;;;;8.75;5.20;;;;;;;9.59;30.02;96382.36;1777790;80;20989;-64
2022/01/15 11:55:05;;;;;;;10.05;6.12;;;;;;;9.96;31.04;96380.50;1777689;81;21026;-65
2022/01/15 11:57:46;;;;;;;10.40;7.10;;;;;;;9.38;30.76;96376.70;1777885;80;21500;-64
2022/01/15 12:00:21;;;;;;;9.00;6.58;;;;;;;8.31;32.33;96387.97;1778113;80;20986;-64
2022/01/15 12:03:04;;;;;;;11.28;6.60;;;;;;;7.48;33.79;96395.02;1777710;80;21018;-64
2022/01/15 12:05:40;;;;;;;9.58;5.53;;;;;;;7.30;35.27;96389.66;1777992;80;21045;-65
2022/01/15 12:08:15;;;;;;;11.10;7.28;;;;;;;7.57;34.83;96389.84;1777858;81;20971;-64